Time;durP1;ratioP1;P1;durP2;ratioP2;P2;SDS_P1;SDS_P2;PMS_P1;PMS_P2;Temp;Humidity;BMP_temperature;BMP_pressure;BME280_temperature;BME280_humidity;BME280_pressure;Samples;Min_cycle;Max_cycle;Signal;HPM_P1;HPM_P2
2023/06/06 04:33:08;;;;;;;;;18.00;12.25;;;;;18.36;53.74;101383.50;4976895;28;45524;-78
2023/06/06 04:35:34;;;;;;;;;13.75;13.00;;;;;18.33;53.22;101372.84;4978249;28;45500;-76
2023/06/06 04:37:59;;;;;;;;;21.75;16.75;;;;;18.35;53.30;101379.03;4978250;28;45500;-75
2023/06/06 04:40:32;;;;;;;;;24.25;19.00;;;;;18.32;53.63;101371.09;4977246;28;50819;-78
2023/06/06 04:42:58;;;;;;;;;16.50;13.00;;;;;18.22;53.56;101350.09;4978233;28;45464;-80
2023/06/06 04:45:23;;;;;;;;;18.00;12.50;;;;;18.35;53.56;101381.75;4977946;28;45227;-77
2023/06/06 04:47:49;;;;;;;;;19.00;14.50;;;;;18.32;53.59;101375.66;4978402;28;45393;-77
2023/06/06 04:50:14;;;;;;;;;17.00;17.00;;;;;18.37;53.64;101381.66;4978236;28;46020;-77
2023/06/06 04:52:39;;;;;;;;;20.00;15.50;;;;;18.33;53.58;101375.56;4977816;28;45250;-76
2023/06/06 04:55:07;;;;;;;;;19.75;19.75;;;;;18.27;53.83;101367.84;4978390;28;45295;-75
2023/06/06 04:57:33;;;;;;;;;17.00;17.00;;;;;18.32;53.85;101371.09;4976861;28;45533;-74
2023/06/06 04:59:58;;;;;;;;;21.25;17.50;;;;;18.33;53.92;101382.84;4961925;28;46057;-75
2023/06/06 05:02:28;;;;;;;;;27.00;19.00;;;;;18.21;53.85;101362.81;4955726;28;45390;-75
2023/06/06 05:04:56;;;;;;;;;20.50;17.25;;;;;18.33;53.79;101383.69;4975177;28;45370;-73
2023/06/06 05:07:24;;;;;;;;;22.25;18.50;;;;;18.35;54.14;101383.59;4957282;28;45525;-76
2023/06/06 05:09:54;;;;;;;;;24.50;19.00;;;;;18.34;54.00;101380.00;4975678;28;46140;-78
2023/06/06 05:12:20;;;;;;;;;22.00;16.00;;;;;18.32;54.06;101371.09;4975176;28;45524;-74
2023/06/06 05:14:45;;;;;;;;;25.75;17.50;;;;;18.34;53.58;101369.16;4975053;28;45492;-76
2023/06/06 05:17:16;;;;;;;;;23.00;17.00;;;;;18.29;53.76;101359.59;4975323;28;45584;-82
2023/06/06 05:19:41;;;;;;;;;19.50;18.00;;;;;18.45;53.74;101377.44;4975294;28;47225;-78
2023/06/06 05:22:07;;;;;;;;;24.00;17.50;;;;;18.48;53.91;101379.06;4976897;28;45228;-79
2023/06/06 05:24:33;;;;;;;;;30.75;22.75;;;;;18.45;53.72;101374.72;4976737;28;45243;-78
2023/06/06 05:26:58;;;;;;;;;26.00;21.25;;;;;18.44;53.91;101370.28;4975760;28;45291;-71
2023/06/06 05:29:26;;;;;;;;;20.75;18.75;;;;;18.49;54.09;101378.09;4975415;28;50801;-74
2023/06/06 05:31:51;;;;;;;;;23.75;22.25;;;;;18.50;53.85;101379.84;4987112;28;45302;-77
2023/06/06 05:34:16;;;;;;;;;25.75;23.00;;;;;18.50;54.11;101375.28;4988359;28;45468;-71
2023/06/06 05:36:42;;;;;;;;;27.75;23.25;;;;;18.46;53.93;101362.88;4976766;28;45335;-75
2023/06/06 05:39:07;;;;;;;;;25.25;18.50;;;;;18.46;53.82;101371.00;4975323;28;45451;-76
2023/06/06 05:41:34;;;;;;;;;27.75;17.50;;;;;18.41;54.11;101373.19;4977312;28;45428;-75
2023/06/06 05:43:59;;;;;;;;;30.50;23.75;;;;;18.39;53.96;101366.13;4995649;28;45389;-78
2023/06/06 05:46:25;;;;;;;;;19.00;18.50;;;;;18.03;54.41;101324.22;4994990;28;45542;-80
2023/06/06 05:48:51;;;;;;;;;30.75;24.75;;;;;18.35;54.29;101392.63;4995427;28;46368;-80
2023/06/06 05:51:16;;;;;;;;;27.50;23.00;;;;;18.26;54.67;101378.78;4995792;28;45337;-77
2023/06/06 05:53:44;;;;;;;;;19.25;17.75;;;;;18.14;54.77;101370.50;4995590;28;45286;-78
2023/06/06 05:56:12;;;;;;;;;31.75;27.00;;;;;18.27;54.59;101394.97;4977387;28;45497;-79
2023/06/06 05:58:37;;;;;;;;;23.25;19.00;;;;;18.11;54.75;101368.00;4990274;28;45380;-78
2023/06/06 06:01:03;;;;;;;;;28.75;25.50;;;;;18.21;55.00;101372.78;4986914;28;45411;-80
2023/06/06 06:03:30;;;;;;;;;30.75;28.75;;;;;18.25;54.75;101388.78;4995601;28;45333;-79
2023/06/06 06:06:02;;;;;;;;;30.75;26.00;;;;;18.24;54.68;101387.03;4995271;28;45337;-79
2023/06/06 06:08:28;;;;;;;;;30.75;28.75;;;;;18.20;54.87;101393.66;4977111;28;46167;-79
2023/06/06 06:10:54;;;;;;;;;31.50;25.75;;;;;18.15;55.29;101391.25;4995080;28;45456;-80
2023/06/06 06:13:19;;;;;;;;;33.25;25.00;;;;;18.11;55.22;101378.88;4995145;28;46202;-76
2023/06/06 06:15:44;;;;;;;;;27.25;25.50;;;;;18.13;55.32;101376.03;4994827;28;45286;-78
2023/06/06 06:18:10;;;;;;;;;31.50;25.75;;;;;18.27;54.98;101399.53;4988097;28;46023;-79
2023/06/06 06:20:35;;;;;;;;;27.50;25.00;;;;;18.25;54.81;101399.63;4994530;28;45210;-79
2023/06/06 06:23:01;;;;;;;;;30.00;28.00;;;;;18.17;55.19;101377.56;4992665;28;45416;-78
2023/06/06 06:25:26;;;;;;;;;31.25;26.75;;;;;18.13;55.24;101371.47;4975284;28;45649;-78
2023/06/06 06:27:52;;;;;;;;;37.75;30.00;;;;;18.31;54.90;101401.06;4994563;28;46280;-79
2023/06/06 06:30:18;;;;;;;;;29.25;27.50;;;;;18.34;55.20;101395.44;4994348;28;45462;-80
2023/06/06 06:32:44;;;;;;;;;29.25;26.00;;;;;18.28;54.70;101382.28;4994407;28;45851;-78
2023/06/06 06:35:10;;;;;;;;;30.50;28.00;;;;;18.28;55.18;101387.72;4985549;28;45307;-77
2023/06/06 06:37:37;;;;;;;;;33.75;29.25;;;;;18.33;54.71;101405.41;4993990;28;45614;-77
2023/06/06 06:40:21;;;;;;;;;42.50;29.25;;;;;18.35;54.88;101408.03;4993981;28;45486;-79
2023/06/06 06:42:46;;;;;;;;;30.00;23.00;;;;;18.23;54.87;101374.44;4994540;28;45445;-79
2023/06/06 06:45:13;;;;;;;;;39.00;30.00;;;;;18.38;55.13;101392.38;4993591;28;45698;-79
2023/06/06 06:47:40;;;;;;;;;38.25;28.50;;;;;18.46;55.27;101403.59;4993724;28;45691;-80
2023/06/06 06:50:06;;;;;;;;;30.25;27.25;;;;;18.44;54.86;101388.41;4996702;28;45375;-79
2023/06/06 06:52:35;;;;;;;;;31.50;27.25;;;;;18.50;55.07;101385.25;4998289;28;45345;-80
2023/06/06 06:55:03;;;;;;;;;33.25;28.75;;;;;18.63;54.54;101399.75;4994749;28;45520;-82
2023/06/06 06:57:29;;;;;;;;;26.00;23.50;;;;;18.66;54.60;101393.25;4974404;28;46100;-77
2023/06/06 06:59:58;;;;;;;;;27.50;24.00;;;;;18.68;54.61;101392.19;4979810;28;45530;-77
2023/06/06 07:02:28;;;;;;;;;36.75;29.00;;;;;18.69;54.21;101387.63;4963484;28;45341;-78
2023/06/06 07:04:54;;;;;;;;;23.25;23.00;;;;;18.77;54.42;101396.97;4972587;28;46455;-78
2023/06/06 07:07:20;;;;;;;;;30.25;26.75;;;;;18.71;54.32;101377.53;4999608;28;46363;-78
2023/06/06 07:09:46;;;;;;;;;35.00;29.25;;;;;18.91;54.04;101406.88;4982297;28;45250;-79
2023/06/06 07:12:12;;;;;;;;;32.50;28.25;;;;;18.84;53.99;101397.41;4966642;28;45411;-78
2023/06/06 07:14:38;;;;;;;;;33.00;25.25;;;;;18.84;54.21;101392.84;4991912;28;45572;-79
2023/06/06 07:17:05;;;;;;;;;32.50;29.00;;;;;18.89;54.00;101404.25;4978516;28;45246;-78
2023/06/06 07:19:31;;;;;;;;;31.25;27.50;;;;;18.89;54.31;101395.22;4977691;28;45445;-77
2023/06/06 07:21:56;;;;;;;;;31.50;26.50;;;;;19.01;54.32;101405.25;4998422;28;45454;-79
2023/06/06 07:24:23;;;;;;;;;34.25;29.25;;;;;19.02;54.07;101396.13;4980419;28;47514;-78
2023/06/06 07:26:51;;;;;;;;;40.50;28.25;;;;;19.09;53.68;101405.56;4987902;28;45912;-80
2023/06/06 07:29:21;;;;;;;;;30.50;27.00;;;;;19.05;53.92;101384.16;4981644;28;45487;-80
2023/06/06 07:31:46;;;;;;;;;35.25;26.75;;;;;19.05;54.04;101376.88;4998002;28;45389;-78
2023/06/06 07:34:12;;;;;;;;;29.00;26.25;;;;;19.24;53.61;101395.44;4989890;28;45665;-78
2023/06/06 07:36:37;;;;;;;;;28.75;25.50;;;;;19.13;53.55;101381.78;4997730;28;50431;-80
2023/06/06 07:39:03;;;;;;;;;31.75;27.75;;;;;19.20;53.69;101392.09;4997929;28;45440;-79
2023/06/06 07:41:33;;;;;;;;;29.25;26.75;;;;;19.25;53.77;101394.47;4999960;28;45353;-77
2023/06/06 07:43:59;;;;;;;;;36.50;30.00;;;;;19.25;54.03;101394.47;5000176;28;45362;-80
2023/06/06 07:46:24;;;;;;;;;35.25;28.00;;;;;19.30;53.83;101397.75;4982251;28;45371;-78
2023/06/06 07:48:50;;;;;;;;;32.25;27.25;;;;;19.27;53.98;101387.06;5000281;28;45418;-79
2023/06/06 07:51:16;;;;;;;;;33.75;32.50;;;;;19.37;53.50;101390.00;5001968;28;45390;-79
2023/06/06 07:53:43;;;;;;;;;30.25;27.50;;;;;19.38;53.58;101391.75;5001084;28;45281;-78
2023/06/06 07:56:09;;;;;;;;;31.00;23.00;;;;;19.42;53.30;101387.81;5000825;28;47334;-78
2023/06/06 07:58:52;;;;;;;;;25.75;24.00;;;;;19.57;53.47;101400.31;4996265;28;45242;-78
2023/06/06 08:01:23;;;;;;;;;33.25;27.75;;;;;19.58;53.20;101392.06;4976970;28;45273;-81
2023/06/06 08:03:49;;;;;;;;;30.00;25.50;;;;;19.69;52.99;101404.88;4999366;28;45459;-78
2023/06/06 08:06:18;;;;;;;;;34.75;29.50;;;;;19.61;52.98;101378.25;4997203;28;46094;-79
2023/06/06 08:08:45;;;;;;;;;27.25;24.25;;;;;19.82;52.94;101397.53;4979605;28;45557;-78
2023/06/06 08:11:12;;;;;;;;;30.50;28.75;;;;;19.77;52.59;101372.53;4979859;28;45420;-80
2023/06/06 08:13:37;;;;;;;;;34.00;29.50;;;;;19.92;52.76;101395.88;4988925;28;45462;-77
2023/06/06 08:16:02;;;;;;;;;31.00;26.50;;;;;19.99;52.54;101394.41;4979153;28;47162;-77
2023/06/06 08:18:28;;;;;;;;;32.50;27.00;;;;;19.80;52.51;101363.28;4997122;28;45404;-79
2023/06/06 08:20:54;;;;;;;;;30.50;25.50;;;;;20.00;52.51;101390.72;4979470;28;45374;-80
2023/06/06 08:23:20;;;;;;;;;33.50;28.75;;;;;19.98;52.55;101383.69;4997125;28;45594;-79
2023/06/06 08:25:45;;;;;;;;;35.00;29.25;;;;;20.05;52.05;101384.94;4984431;28;45461;-78
2023/06/06 08:28:10;;;;;;;;;35.25;29.75;;;;;20.07;52.30;101396.59;4989587;28;45387;-80
2023/06/06 08:30:36;;;;;;;;;27.00;26.75;;;;;20.00;51.82;101376.25;4977241;28;45446;-79
2023/06/06 08:33:01;;;;;;;;;26.00;25.00;;;;;20.14;52.00;101386.09;4981717;28;45458;-79
2023/06/06 08:35:26;;;;;;;;;35.25;28.75;;;;;20.20;52.01;101388.34;4990169;28;48163;-78
2023/06/06 08:37:52;;;;;;;;;23.00;17.00;;;;;20.22;52.07;101376.38;4996401;28;45431;-78
2023/06/06 08:40:17;;;;;;;;;30.50;27.00;;;;;20.31;52.17;101393.88;4990389;28;45501;-80
2023/06/06 08:42:45;;;;;;;;;26.25;23.75;;;;;20.28;52.05;101365.00;4996841;28;45449;-78
2023/06/06 08:45:11;;;;;;;;;36.75;30.25;;;;;20.35;51.63;101376.31;4996504;28;46059;-80
2023/06/06 08:47:37;;;;;;;;;37.50;31.50;;;;;20.35;51.67;101370.88;4990641;28;45523;-79
2023/06/06 08:50:04;;;;;;;;;36.25;29.50;;;;;20.39;51.73;101365.09;4972944;28;45364;-80
2023/06/06 08:52:34;;;;;;;;;25.50;23.50;;;;;20.43;51.71;101381.19;4987076;28;45328;-78
2023/06/06 08:55:01;;;;;;;;;30.25;26.75;;;;;20.38;51.35;101357.91;4991068;28;45473;-78
2023/06/06 08:57:27;;;;;;;;;29.00;26.50;;;;;20.47;51.50;101367.22;4996519;28;45422;-79
2023/06/06 08:59:52;;;;;;;;;34.50;27.75;;;;;20.67;51.13;101382.88;4965599;28;45380;-78
2023/06/06 09:02:18;;;;;;;;;34.25;29.75;;;;;20.77;51.22;101402.97;4994788;28;45547;-79
2023/06/06 09:04:44;;;;;;;;;31.00;26.75;;;;;20.74;50.86;101388.72;4991761;28;46395;-80
2023/06/06 09:07:12;;;;;;;;;36.75;27.25;;;;;20.71;50.88;101375.34;4996649;28;45310;-80
2023/06/06 09:09:40;;;;;;;;;24.25;24.25;;;;;20.78;50.75;101369.28;4996697;28;45604;-79
2023/06/06 09:12:07;;;;;;;;;33.25;28.50;;;;;20.92;50.95;101394.59;4996408;28;45488;-82
2023/06/06 09:14:32;;;;;;;;;31.50;26.25;;;;;20.87;50.87;101370.41;4995808;28;45633;-79
2023/06/06 09:16:59;;;;;;;;;31.50;28.25;;;;;20.99;50.73;101395.84;4996232;28;45687;-80
2023/06/06 09:19:25;;;;;;;;;31.25;24.50;;;;;20.93;50.73;101369.03;4995873;28;45566;-80
2023/06/06 09:21:51;;;;;;;;;37.50;28.50;;;;;20.98;50.64;101383.19;4995624;28;45282;-81
2023/06/06 09:24:17;;;;;;;;;29.25;26.75;;;;;20.96;50.14;101366.97;4995824;28;45438;-81
2023/06/06 09:26:42;;;;;;;;;26.50;24.00;;;;;21.12;50.10;101380.22;4996172;28;45994;-82
2023/06/06 09:29:08;;;;;;;;;32.00;29.25;;;;;21.08;50.32;101371.44;4982275;28;45495;-79
2023/06/06 09:31:37;;;;;;;;;27.25;23.75;;;;;21.15;49.99;101382.72;4972832;28;47167;-80
2023/06/06 09:34:03;;;;;;;;;31.75;28.25;;;;;21.21;50.54;101376.81;4983488;28;46454;-79
2023/06/06 09:36:29;;;;;;;;;28.75;25.00;;;;;21.25;50.43;101371.97;4977404;28;45407;-78
2023/06/06 09:39:04;;;;;;;;;29.50;26.50;;;;;21.31;50.26;101371.47;4984563;28;45463;-79
2023/06/06 09:41:29;;;;;;;;;25.25;22.00;;;;;21.41;49.66;101376.06;4995874;28;45511;-81
2023/06/06 09:43:55;;;;;;;;;28.75;26.25;;;;;21.31;49.42;101358.72;4995892;28;46168;-79
2023/06/06 09:46:20;;;;;;;;;27.00;23.50;;;;;21.36;49.62;101363.78;4995686;28;45386;-79
2023/06/06 09:49:00;;;;;;;;;28.50;25.50;;;;;21.35;49.27;101356.63;4996038;28;45419;-80
2023/06/06 09:51:29;;;;;;;;;26.25;21.75;;;;;21.43;48.94;101360.47;4995980;28;45494;-80
2023/06/06 09:53:54;;;;;;;;;33.50;25.75;;;;;21.52;49.09;101375.22;4995054;28;45466;-77
2023/06/06 09:56:23;;;;;;;;;28.25;23.75;;;;;21.46;49.07;101345.69;4994950;28;45322;-78
2023/06/06 09:58:57;;;;;;;;;29.75;25.75;;;;;21.61;48.69;101373.56;4975789;28;45322;-79
2023/06/06 10:01:27;;;;;;;;;30.00;23.00;;;;;21.59;48.94;101356.47;4972559;28;45429;-78
2023/06/06 10:03:55;;;;;;;;;28.00;26.00;;;;;21.67;48.96;101359.44;4989216;28;45356;-79
2023/06/06 10:06:21;;;;;;;;;26.50;22.25;;;;;21.68;48.67;101352.97;4995123;28;45827;-80
2023/06/06 10:08:48;;;;;;;;;26.25;23.25;;;;;21.63;48.57;101345.16;4995807;28;45323;-79
2023/06/06 10:11:13;;;;;;;;;27.50;26.25;;;;;21.68;48.58;101339.34;4995367;28;45377;-79
2023/06/06 10:13:39;;;;;;;;;26.75;19.00;;;;;21.83;48.92;101359.88;4995890;28;46205;-81
2023/06/06 10:16:07;;;;;;;;;29.75;25.00;;;;;21.79;48.61;101344.75;4962242;28;46022;-80
2023/06/06 10:18:33;;;;;;;;;27.25;25.50;;;;;21.89;48.56;101356.63;4995449;28;45253;-80
2023/06/06 10:21:02;;;;;;;;;33.50;28.75;;;;;21.94;48.75;101356.28;4994747;28;45383;-82
2023/06/06 10:23:27;;;;;;;;;23.75;21.50;;;;;21.73;49.25;101304.31;4994290;28;46454;-81
2023/06/06 10:25:55;;;;;;;;;29.00;27.00;;;;;22.04;48.73;101349.03;4976803;28;45524;-77
2023/06/06 10:28:33;;;;;;;;;28.75;26.50;;;;;21.88;48.75;101322.13;4994955;28;45433;-83
2023/06/06 10:31:15;;;;;;;;;28.50;24.25;;;;;21.96;49.02;101325.09;4994475;28;45523;-80
2023/06/06 10:33:51;;;;;;;;;31.00;21.50;;;;;22.15;48.78;101338.09;4986603;28;45432;-81
2023/06/06 10:36:18;;;;;;;;;28.50;25.50;;;;;22.23;47.93;101343.75;4968404;28;45462;-79
2023/06/06 10:39:15;;;;;;;;;27.50;25.00;;;;;22.29;48.27;101348.69;4977214;28;45288;-80
2023/06/06 10:41:42;;;;;;;;;23.25;22.00;;;;;22.23;48.50;101321.91;4994979;28;45487;-80
2023/06/06 10:44:08;;;;;;;;;23.00;22.50;;;;;22.26;48.30;101313.47;4977320;28;48422;-81
2023/06/06 10:46:34;;;;;;;;;27.00;23.00;;;;;22.42;48.02;101333.00;4976553;28;45413;-78
2023/06/06 10:49:00;;;;;;;;;25.75;22.50;;;;;22.45;48.51;101324.56;4977649;28;45596;-79
2023/06/06 10:51:39;;;;;;;;;29.25;27.25;;;;;22.52;47.91;101320.28;4995862;28;45222;-78
2023/06/06 10:54:21;;;;;;;;;29.75;24.75;;;;;22.70;47.70;101336.94;4995390;28;45289;-79
2023/06/06 10:56:55;;;;;;;;;32.50;22.50;;;;;22.76;47.61;101327.38;4987127;28;45250;-79
2023/06/06 10:59:24;;;;;;;;;22.50;21.00;;;;;22.84;48.48;101327.56;4984386;28;45568;-78
2023/06/06 11:01:49;;;;;;;;;24.75;21.75;;;;;22.79;47.10;101306.09;4992703;28;45532;-80
2023/06/06 11:04:26;;;;;;;;;26.00;24.25;;;;;22.97;47.13;101320.00;4995001;28;45369;-83
2023/06/06 11:06:53;;;;;;;;;29.50;24.75;;;;;22.83;46.58;101282.94;4979449;28;45456;-79
2023/06/06 11:09:25;;;;;;;;;24.75;21.00;;;;;23.11;46.42;101319.66;4979713;28;45541;-78
2023/06/06 11:12:13;;;;;;;;;23.00;22.75;;;;;23.16;46.88;101300.06;4997420;28;45528;-82
2023/06/06 11:14:55;;;;;;;;;24.50;23.00;;;;;23.24;46.31;101306.59;4978733;28;46534;-80
2023/06/06 11:17:27;;;;;;;;;25.50;23.75;;;;;23.33;46.34;101303.03;4998817;28;45519;-81
2023/06/06 11:19:54;;;;;;;;;25.00;22.00;;;;;23.35;45.81;101302.88;4982171;28;45410;-80
2023/06/06 11:22:24;;;;;;;;;24.75;20.75;;;;;23.41;46.13;101294.09;5000529;28;45253;-81
2023/06/06 11:24:50;;;;;;;;;20.75;20.00;;;;;23.46;45.83;101272.69;5000578;28;45435;-81
2023/06/06 11:27:17;;;;;;;;;19.75;18.50;;;;;23.61;45.66;101279.50;4998676;28;45293;-82
2023/06/06 11:29:43;;;;;;;;;23.25;18.00;;;;;23.59;45.49;101254.16;4985997;28;45401;-81
2023/06/06 11:32:14;;;;;;;;;24.75;20.75;;;;;23.58;44.78;101236.00;4980910;28;45234;-82
2023/06/06 11:34:41;;;;;;;;;20.50;19.25;;;;;23.80;45.22;101255.91;4979715;28;45499;-81
2023/06/06 11:37:07;;;;;;;;;23.00;22.00;;;;;24.07;44.72;101281.56;4967716;28;45369;-82
2023/06/06 11:39:33;;;;;;;;;19.75;19.75;;;;;24.01;45.18;101262.97;4973642;28;45306;-81
2023/06/06 11:42:00;;;;;;;;;22.00;21.25;;;;;24.27;44.92;101285.19;5002028;28;45614;-82
2023/06/06 11:44:35;;;;;;;;;19.25;18.75;;;;;24.17;42.45;101256.91;4997752;28;45560;-80
2023/06/06 11:47:08;;;;;;;;;17.00;16.75;;;;;24.33;42.18;101268.16;4981144;28;45604;-77
2023/06/06 11:49:45;;;;;;;;;21.00;15.00;;;;;24.51;42.86;101271.88;4978089;28;45468;-78
2023/06/06 11:52:10;;;;;;;;;20.75;19.75;;;;;24.49;42.65;101252.00;4968957;28;47577;-78
2023/06/06 11:54:36;;;;;;;;;23.00;19.75;;;;;24.67;42.35;101273.16;4989071;28;45412;-79
2023/06/06 11:57:03;;;;;;;;;18.00;16.00;;;;;24.64;42.51;101243.28;4974102;28;45456;-78
2023/06/06 11:59:29;;;;;;;;;17.00;15.75;;;;;24.89;42.10;101272.78;4977897;28;45435;-77
2023/06/06 12:01:56;;;;;;;;;19.50;16.75;;;;;24.95;42.45;101263.13;4995736;28;45545;-77
2023/06/06 12:04:23;;;;;;;;;18.25;17.25;;;;;25.10;41.41;101270.69;4991334;28;45555;-77
2023/06/06 12:06:53;;;;;;;;;15.50;13.50;;;;;25.18;41.04;101265.31;4979247;28;45338;-77
2023/06/06 12:09:20;;;;;;;;;16.25;16.25;;;;;25.28;40.96;101259.78;4990681;28;45463;-78
2023/06/06 12:11:53;;;;;;;;;18.75;16.50;;;;;25.38;40.57;101267.97;4997999;28;45372;-81
2023/06/06 12:14:18;;;;;;;;;16.75;14.25;;;;;25.44;40.32;101270.97;4980117;28;46328;-77
2023/06/06 12:16:44;;;;;;;;;22.00;20.00;;;;;25.49;40.66;101262.28;4979194;28;45839;-79
2023/06/06 12:19:16;;;;;;;;;22.25;18.50;;;;;25.60;40.35;101256.59;4969028;28;45375;-78
2023/06/06 12:21:49;;;;;;;;;17.50;14.25;;;;;25.75;40.32;101255.03;4974653;28;46040;-79
2023/06/06 12:24:23;;;;;;;;;18.25;16.25;;;;;25.75;40.46;101235.81;4967816;28;47321;-78
2023/06/06 12:26:53;;;;;;;;;18.00;13.25;;;;;25.96;39.82;101255.59;4998061;28;45386;-78
2023/06/06 12:29:26;;;;;;;;;16.50;12.75;;;;;26.07;39.69;101248.13;4977107;28;45340;-78
2023/06/06 12:32:17;;;;;;;;;15.00;14.25;;;;;26.21;39.50;101256.66;4977608;28;45956;-76
2023/06/06 12:34:48;;;;;;;;;14.75;13.75;;;;;26.27;38.80;101256.06;4968013;28;47558;-77
2023/06/06 12:37:15;;;;;;;;;16.75;15.25;;;;;26.21;38.11;101220.06;4980007;28;45329;-78
2023/06/06 12:39:46;;;;;;;;;16.50;14.25;;;;;26.49;38.69;101249.19;4973176;28;45437;-77
2023/06/06 12:42:18;;;;;;;;;12.25;12.25;;;;;26.54;38.98;101229.47;4993704;28;45366;-78
2023/06/06 12:44:44;;;;;;;;;12.75;12.75;;;;;26.60;37.54;101235.19;4979903;28;46539;-77
2023/06/06 12:47:14;;;;;;;;;16.50;14.25;;;;;26.63;36.90;101221.06;4976572;28;45391;-76
2023/06/06 12:49:41;;;;;;;;;18.25;14.00;;;;;26.71;37.36;101221.13;4980203;28;45405;-77
2023/06/06 12:52:07;;;;;;;;;18.00;11.75;;;;;26.92;37.51;101222.66;4979953;28;47116;-79
2023/06/06 12:54:40;;;;;;;;;16.00;13.25;;;;;27.17;36.65;101246.50;4997605;28;45401;-77
2023/06/06 12:57:06;;;;;;;;;12.25;11.00;;;;;27.22;36.39;101238.59;4996883;28;45525;-77
2023/06/06 12:59:32;;;;;;;;;17.25;15.75;;;;;27.39;37.29;101234.88;4984541;28;45378;-77
2023/06/06 13:01:58;;;;;;;;;14.50;12.50;;;;;27.52;36.04;101233.53;4995640;28;45539;-78
2023/06/06 13:04:25;;;;;;;;;13.25;12.00;;;;;27.67;35.41;101234.63;4996788;28;46656;-78
2023/06/06 13:06:51;;;;;;;;;13.00;12.00;;;;;27.65;34.86;101223.78;4995857;28;45378;-79
2023/06/06 13:09:17;;;;;;;;;13.25;12.25;;;;;27.82;34.83;101232.94;4978944;28;45329;-78
2023/06/06 13:11:44;;;;;;;;;12.25;11.00;;;;;27.80;34.34;101211.09;4996130;28;45506;-78
2023/06/06 13:14:11;;;;;;;;;14.75;11.75;;;;;27.98;34.30;101221.94;4995896;28;46379;-77
2023/06/06 13:16:36;;;;;;;;;11.25;11.25;;;;;28.09;32.77;101229.84;4977193;28;45398;-79
2023/06/06 13:19:02;;;;;;;;;12.75;10.50;;;;;28.08;33.45;101222.63;4989688;28;45504;-79
2023/06/06 13:21:27;;;;;;;;;12.75;12.75;;;;;28.20;33.76;101217.66;4996439;28;45241;-78
2023/06/06 13:23:53;;;;;;;;;11.50;11.50;;;;;28.20;33.17;101204.75;4978196;28;47420;-78
2023/06/06 13:26:18;;;;;;;;;15.00;12.25;;;;;28.20;33.62;101198.34;4996073;28;45360;-78
2023/06/06 13:28:43;;;;;;;;;11.25;10.50;;;;;28.39;33.35;101227.47;4995997;28;45375;-79
2023/06/06 13:31:09;;;;;;;;;13.25;12.75;;;;;28.27;33.10;101209.56;4994775;28;45744;-78
2023/06/06 13:33:34;;;;;;;;;10.75;10.00;;;;;28.34;32.95;101208.69;4988860;28;45373;-77
2023/06/06 13:35:59;;;;;;;;;12.75;10.75;;;;;28.35;32.74;101195.75;4996026;28;45365;-77
2023/06/06 13:38:25;;;;;;;;;13.25;11.75;;;;;28.59;32.43;101212.25;4966236;28;45284;-77
2023/06/06 13:40:50;;;;;;;;;9.75;9.00;;;;;28.59;32.28;101198.44;4995284;28;45528;-78
2023/06/06 13:43:16;;;;;;;;;12.50;10.50;;;;;28.70;31.77;101197.22;4995935;28;45238;-79
2023/06/06 13:45:41;;;;;;;;;12.00;8.25;;;;;28.91;31.44;101205.81;4995484;28;45460;-78
2023/06/06 13:48:07;;;;;;;;;9.00;9.00;;;;;28.98;30.77;101202.16;4977384;28;45468;-79
2023/06/06 13:50:34;;;;;;;;;7.00;7.00;;;;;28.87;31.12;101191.50;4995832;28;45401;-77
2023/06/06 13:53:00;;;;;;;;;8.25;8.00;;;;;28.91;30.90;101208.59;4995586;28;45597;-79
2023/06/06 13:55:25;;;;;;;;;10.00;8.50;;;;;28.95;30.51;101196.13;4995879;28;45369;-78
2023/06/06 13:57:52;;;;;;;;;9.75;9.00;;;;;29.07;28.75;101199.38;4995549;28;46000;-78
2023/06/06 14:00:19;;;;;;;;;9.25;7.25;;;;;28.97;28.16;101194.94;4982066;28;45536;-80
2023/06/06 14:02:45;;;;;;;;;11.25;10.00;;;;;28.97;29.27;101192.16;4977855;28;47232;-78
2023/06/06 14:05:11;;;;;;;;;8.75;6.25;;;;;29.01;29.71;101178.00;4995692;28;45369;-77
2023/06/06 14:07:36;;;;;;;;;8.00;8.00;;;;;29.19;29.38;101193.25;4977478;28;45477;-78
2023/06/06 14:10:02;;;;;;;;;8.00;8.00;;;;;29.22;29.33;101189.28;4996386;28;45581;-80
2023/06/06 14:12:27;;;;;;;;;9.00;7.75;;;;;29.29;28.24;101179.22;4977384;28;47143;-77
2023/06/06 14:14:52;;;;;;;;;10.25;9.00;;;;;29.51;28.53;101180.34;4995466;28;45303;-79
2023/06/06 14:17:19;;;;;;;;;8.25;8.25;;;;;29.47;27.46;101167.94;4989110;28;45323;-81
2023/06/06 14:19:50;;;;;;;;;8.75;8.25;;;;;29.57;28.01;101183.22;4994193;28;45279;-82
2023/06/06 14:22:29;;;;;;;;;9.50;8.00;;;;;29.63;27.35;101165.03;4995755;28;45285;-80
2023/06/06 14:24:56;;;;;;;;;8.00;8.00;;;;;29.75;27.68;101171.88;4954497;28;45282;-78
2023/06/06 14:27:27;;;;;;;;;9.00;7.25;;;;;29.84;27.72;101167.16;4995191;28;45444;-85
2023/06/06 14:29:53;;;;;;;;;12.00;10.00;;;;;29.91;27.97;101159.81;4995593;28;47090;-82
2023/06/06 14:32:19;;;;;;;;;7.00;7.00;;;;;30.08;26.58;101159.53;4992377;28;46082;-81
2023/06/06 14:34:46;;;;;;;;;7.75;7.50;;;;;30.08;26.32;101150.38;4986748;28;45361;-82
2023/06/06 14:37:11;;;;;;;;;8.75;7.25;;;;;30.29;27.14;101155.16;4977554;28;45406;-83
2023/06/06 14:39:38;;;;;;;;;9.00;6.25;;;;;30.28;25.36;101140.50;4995430;28;45499;-82
2023/06/06 14:42:05;;;;;;;;;9.25;8.25;;;;;30.61;24.69;101177.00;4995171;28;45457;-80
2023/06/06 14:44:35;;;;;;;;;8.25;7.25;;;;;30.58;24.10;101155.22;4995511;28;45420;-82
2023/06/06 14:47:07;;;;;;;;;8.75;8.00;;;;;30.65;23.69;101153.41;4992772;28;45749;-80
2023/06/06 14:49:33;;;;;;;;;7.50;6.50;;;;;30.66;23.11;101154.28;4995294;28;45435;-80
2023/06/06 14:52:06;;;;;;;;;8.25;8.25;;;;;30.75;24.06;101155.88;4976948;28;46251;-80
2023/06/06 14:54:33;;;;;;;;;8.75;8.25;;;;;30.79;24.74;101149.75;4983346;28;45519;-79
2023/06/06 14:57:03;;;;;;;;;7.50;6.75;;;;;30.81;24.61;101155.13;4975759;28;45318;-82
2023/06/06 14:59:29;;;;;;;;;9.25;7.50;;;;;30.58;24.32;101108.19;4983175;28;45368;-81
2023/06/06 15:01:55;;;;;;;;;7.50;6.75;;;;;30.66;23.95;101119.16;4988903;28;45559;-82
2023/06/06 15:04:21;;;;;;;;;7.50;7.50;;;;;30.74;24.59;101141.19;4970097;28;45197;-82
2023/06/06 15:06:46;;;;;;;;;6.25;6.00;;;;;30.71;24.79;101127.72;4982192;28;45407;-79
2023/06/06 15:09:13;;;;;;;;;9.50;8.50;;;;;30.71;24.85;101126.88;4992694;28;45534;-83
2023/06/06 15:11:49;;;;;;;;;8.50;7.75;;;;;30.76;24.50;101132.69;4975543;28;47082;-85
2023/06/06 15:14:15;;;;;;;;;9.25;6.75;;;;;30.52;24.55;101074.88;4988659;28;45443;-84
2023/06/06 15:16:40;;;;;;;;;10.50;6.50;;;;;30.91;24.35;101116.91;4998397;28;45458;-84
2023/06/06 15:19:06;;;;;;;;;7.50;7.50;;;;;31.01;24.27;101125.78;4991723;28;45412;-81
2023/06/06 15:21:32;;;;;;;;;7.00;6.50;;;;;31.08;23.99;101153.59;4983012;28;46402;-83
2023/06/06 15:23:57;;;;;;;;;6.75;6.75;;;;;30.66;24.23;101118.28;4998937;28;45282;-82
2023/06/06 15:26:22;;;;;;;;;8.50;7.00;;;;;30.74;24.27;101162.47;4997704;28;45713;-78
2023/06/06 15:28:48;;;;;;;;;6.25;5.75;;;;;30.82;23.95;101151.28;4964591;28;47279;-76
2023/06/06 15:31:13;;;;;;;;;9.75;7.00;;;;;31.01;23.55;101150.72;4995969;28;49990;-79
2023/06/06 15:33:38;;;;;;;;;6.00;6.00;;;;;31.26;23.94;101137.41;4990868;28;45443;-84
2023/06/06 15:36:04;;;;;;;;;8.00;7.00;;;;;31.24;23.08;101122.03;4997105;28;45379;-84
2023/06/06 15:38:29;;;;;;;;;7.00;7.00;;;;;31.16;23.47;101114.69;4998251;28;45268;-80
2023/06/06 15:40:55;;;;;;;;;8.00;8.00;;;;;31.31;23.78;101114.63;4974448;28;46670;-81
2023/06/06 15:43:21;;;;;;;;;8.00;8.00;;;;;31.47;23.53;101120.81;4997532;28;45325;-76
2023/06/06 15:45:46;;;;;;;;;7.50;7.50;;;;;31.72;23.38;101137.94;4997737;28;45467;-80